Time;durP1;ratioP1;P1;durP2;ratioP2;P2;SDS_P1;SDS_P2;PMS_P1;PMS_P2;Temp;Humidity;BMP_temperature;BMP_pressure;BME280_temperature;BME280_humidity;BME280_pressure;Samples;Min_cycle;Max_cycle;Signal;HPM_P1;HPM_P2
2021/07/30 00:15:32;;;;;;;;;30.80;29.80;37.40;30.50;;;;;;76453;27;7094;-89
2021/07/30 00:16:09;;;;;;;;;;;;;;;;;;;;;
2021/07/30 00:17:49;;;;;;;;;;;;;;;;;;;;;
2021/07/30 00:19:15;;;;;;;;;31.80;30.40;37.40;30.60;;;;;;648444;30;6610;-90
2021/07/30 00:20:11;;;;;;;;;32.25;30.25;37.40;30.70;;;;;;641265;30;6639;-89
2021/07/30 00:28:55;;;;;;;;;;;;;;;;;;;;;
2021/07/30 00:30:08;;;;;;;;;31.25;29.50;37.30;30.70;;;;;;655340;30;6616;-92
2021/07/30 00:31:27;;;;;;;;;28.75;28.00;37.30;30.50;;;;;;649279;30;6643;-91
2021/07/30 00:41:49;;;;;;;;;32.80;30.80;37.30;30.80;;;;;;661513;29;7638;-89
2021/07/30 00:42:20;;;;;;;;;27.80;27.00;37.30;30.70;;;;;;661524;29;6510;-91
2021/07/30 00:42:51;;;;;;;;;29.00;27.60;37.30;30.60;;;;;;656532;29;6631;-89
2021/07/30 00:43:25;;;;;;;;;30.60;29.80;37.30;30.70;;;;;;655966;30;6793;-90
2021/07/30 00:44:19;;;;;;;;;30.80;30.00;37.30;30.60;;;;;;655253;30;6636;-88
2021/07/30 00:44:39;;;;;;;;;33.00;29.75;37.30;30.70;;;;;;657631;29;6639;-90
2021/07/30 00:45:01;;;;;;;;;29.80;28.80;37.30;30.60;;;;;;656389;30;6492;-91
2021/07/30 00:45:22;;;;;;;;;31.75;29.75;37.30;30.60;;;;;;657788;30;6214;-94
2021/07/30 00:47:25;;;;;;;;;33.50;30.50;37.40;30.70;;;;;;641312;30;6756;-89
2021/07/30 00:47:49;;;;;;;;;33.60;32.00;37.40;31.90;;;;;;642298;30;7075;-91
2021/07/30 00:48:25;;;;;;;;;32.25;30.50;37.40;33.00;;;;;;645463;30;6804;-90
2021/07/30 00:48:50;;;;;;;;;31.60;28.00;37.40;33.40;;;;;;643238;30;6715;-88
2021/07/30 00:49:15;;;;;;;;;33.40;31.00;37.40;32.60;;;;;;643089;30;8828;-89
2021/07/30 00:49:42;;;;;;;;;31.00;28.00;37.40;32.60;;;;;;644516;30;7336;-88
2021/07/30 00:50:03;;;;;;;;;29.25;28.25;37.40;32.40;;;;;;645650;30;7655;-88
2021/07/30 00:50:24;;;;;;;;;32.40;30.40;37.40;32.40;;;;;;646375;30;6742;-88
2021/07/30 00:50:45;;;;;;;;;33.00;31.40;37.40;32.50;;;;;;650096;30;6519;-88
2021/07/30 00:51:09;;;;;;;;;32.00;29.60;37.40;32.20;;;;;;643836;30;6719;-89
2021/07/30 00:51:41;;;;;;;;;38.25;33.00;37.50;32.10;;;;;;640970;30;6823;-89
2021/07/30 00:52:11;;;;;;;;;35.00;32.00;37.40;32.30;;;;;;640809;30;6931;-90
2021/07/30 00:52:35;;;;;;;;;31.00;30.00;37.40;32.40;;;;;;640155;30;6704;-88
2021/07/30 00:53:02;;;;;;;;;29.00;28.00;37.40;32.20;;;;;;639108;30;8607;-88
2021/07/30 00:53:29;;;;;;;;;32.60;30.40;37.40;32.20;;;;;;644500;30;6941;-92
2021/07/30 00:53:51;;;;;;;;;34.25;32.25;37.40;31.90;;;;;;646632;30;6793;-92
2021/07/30 00:54:14;;;;;;;;;34.00;30.60;37.50;32.10;;;;;;645113;30;6890;-93
2021/07/30 00:54:35;;;;;;;;;34.80;30.80;37.50;32.10;;;;;;647923;30;6719;-92
2021/07/30 00:55:00;;;;;;;;;26.50;26.50;37.50;31.90;;;;;;648104;30;6733;-91
2021/07/30 00:55:23;;;;;;;;;32.25;30.00;37.50;32.00;;;;;;645867;30;6498;-93
2021/07/30 00:55:46;;;;;;;;;34.20;31.00;37.50;32.10;;;;;;645531;30;6602;-88
2021/07/30 00:56:08;;;;;;;;;26.20;26.20;37.50;32.00;;;;;;647138;30;6707;-91
2021/07/30 00:56:30;;;;;;;;;33.25;30.00;37.50;31.90;;;;;;646043;30;6741;-90
2021/07/30 00:56:54;;;;;;;;;32.75;30.75;37.50;32.00;;;;;;646060;30;6676;-92
2021/07/30 00:57:26;;;;;;;;;29.50;29.00;37.60;32.00;;;;;;645726;30;6737;-86
2021/07/30 00:58:02;;;;;;;;;36.25;32.50;37.50;31.60;;;;;;645947;30;6471;-87
2021/07/30 00:58:25;;;;;;;;;28.00;28.00;37.60;31.80;;;;;;644549;30;7014;-87
2021/07/30 00:58:50;;;;;;;;;29.40;29.40;37.60;31.50;;;;;;645316;30;6777;-87
2021/07/30 00:59:11;;;;;;;;;32.00;29.00;37.60;31.80;;;;;;643887;30;6437;-86
2021/07/30 00:59:41;;;;;;;;;36.00;33.00;37.60;31.80;;;;;;644028;30;7318;-87
2021/07/30 01:00:05;;;;;;;;;30.75;28.75;37.60;31.50;;;;;;646328;30;6580;-87
2021/07/30 01:00:29;;;;;;;;;33.20;29.40;37.60;31.80;;;;;;646628;30;8627;-88
2021/07/30 01:00:51;;;;;;;;;30.20;28.60;37.60;31.60;;;;;;646337;30;8869;-87
2021/07/30 01:01:15;;;;;;;;;31.00;29.60;37.60;31.50;;;;;;646337;30;9485;-87
2021/07/30 01:01:57;;;;;;;;;30.50;27.50;37.60;31.50;;;;;;646780;30;9412;-89
2021/07/30 01:02:21;;;;;;;;;33.00;31.00;37.60;31.30;;;;;;648027;30;6785;-86
2021/07/30 01:02:48;;;;;;;;;34.20;30.20;37.60;31.60;;;;;;648751;30;6986;-88
2021/07/30 01:03:23;;;;;;;;;29.00;27.20;37.60;31.60;;;;;;646719;30;6900;-88
2021/07/30 01:03:44;;;;;;;;;31.20;29.00;37.60;31.30;;;;;;644414;30;8419;-86
2021/07/30 01:04:07;;;;;;;;;31.40;29.00;37.60;31.60;;;;;;646406;30;7179;-88
2021/07/30 01:04:37;;;;;;;;;32.80;29.20;37.60;31.80;;;;;;646957;30;7222;-86
2021/07/30 01:04:59;;;;;;;;;32.40;29.60;37.50;31.50;;;;;;649540;30;7300;-87
2021/07/30 01:05:20;;;;;;;;;33.00;30.00;37.60;31.60;;;;;;649823;30;7876;-86
2021/07/30 01:05:41;;;;;;;;;27.00;25.50;37.60;31.60;;;;;;646604;30;7169;-90
2021/07/30 01:06:26;;;;;;;;;29.00;27.00;37.60;31.40;;;;;;644958;30;6921;-87
2021/07/30 01:06:47;;;;;;;;;29.40;29.20;37.60;31.40;;;;;;646455;30;8777;-86
2021/07/30 01:07:40;;;;;;;;;33.20;31.60;37.60;31.60;;;;;;646950;30;6613;-87
2021/07/30 01:08:03;;;;;;;;;27.60;27.60;37.60;31.70;;;;;;646140;30;6819;-89
2021/07/30 01:10:34;;;;;;;;;34.40;31.00;37.60;31.50;;;;;;639713;30;6526;-90
2021/07/30 01:12:26;;;;;;;;;32.00;31.00;37.60;31.60;;;;;;630344;31;6833;-88
2021/07/30 01:13:12;;;;;;;;;30.40;30.00;37.60;31.40;;;;;;625825;31;7223;-87
2021/07/30 01:14:13;;;;;;;;;32.50;29.75;37.60;31.40;;;;;;626497;31;7293;-89
2021/07/30 01:14:58;;;;;;;;;33.00;31.00;37.60;31.50;;;;;;625388;31;7099;-88
2021/07/30 01:15:22;;;;;;;;;28.75;27.00;37.60;31.70;;;;;;624517;31;7968;-90
2021/07/30 01:16:05;;;;;;;;;;;;;;;;;;;;;
2021/07/30 01:17:46;;;;;;;;;37.50;32.25;37.60;31.60;;;;;;656794;28;6567;-92
2021/07/30 01:18:39;;;;;;;;;;;;;;;;;;;;;
2021/07/30 01:19:24;;;;;;;;;34.75;32.00;37.60;31.90;;;;;;654673;30;6584;-89
2021/07/30 01:19:44;;;;;;;;;36.00;32.75;37.60;31.90;;;;;;652882;30;6654;-89
2021/07/30 01:20:09;;;;;;;;;33.00;30.20;37.50;31.70;;;;;;656949;30;6571;-89
2021/07/30 01:20:38;;;;;;;;;28.00;28.00;37.60;31.90;;;;;;657529;30;6567;-89
2021/07/30 01:21:19;;;;;;;;;31.50;30.50;37.60;31.80;;;;;;657686;30;6600;-89
2021/07/30 01:21:50;;;;;;;;;34.60;32.00;37.60;31.80;;;;;;656746;30;7057;-89
2021/07/30 01:22:31;;;;;;;;;;;;;;;;;;;;;
2021/07/30 01:22:58;;;;;;;;;35.00;31.25;37.60;31.70;;;;;;656862;30;6585;-91
2021/07/30 01:23:19;;;;;;;;;31.00;30.00;37.60;31.60;;;;;;654501;30;6993;-88
2021/07/30 01:23:53;;;;;;;;;;;;;;;;;;;;;
2021/07/30 01:24:37;;;;;;;;;37.60;33.00;37.60;31.70;;;;;;653942;30;6549;-90
2021/07/30 01:24:58;;;;;;;;;32.80;30.80;37.70;31.70;;;;;;652311;30;8333;-91
2021/07/30 01:25:20;;;;;;;;;32.20;31.00;37.70;31.80;;;;;;655135;30;6593;-89
2021/07/30 01:25:41;;;;;;;;;36.20;31.80;37.70;31.80;;;;;;654905;30;6722;-88
2021/07/30 01:26:02;;;;;;;;;39.00;33.20;37.70;31.80;;;;;;655201;30;5919;-91
2021/07/30 01:26:23;;;;;;;;;31.75;30.75;37.70;31.80;;;;;;655366;30;6488;-90
2021/07/30 01:26:44;;;;;;;;;30.00;30.00;37.70;31.60;;;;;;653702;30;6886;-92
2021/07/30 01:27:05;;;;;;;;;28.00;28.00;37.70;31.60;;;;;;655213;30;6545;-88
2021/07/30 01:27:34;;;;;;;;;38.75;34.00;37.70;32.80;;;;;;655078;30;6530;-89
2021/07/30 01:28:00;;;;;;;;;34.75;31.75;37.70;31.60;;;;;;654533;30;6594;-89
2021/07/30 01:28:30;;;;;;;;;32.20;30.20;37.70;31.50;;;;;;655962;30;6894;-92
2021/07/30 01:28:51;;;;;;;;;28.75;27.75;37.70;31.60;;;;;;656850;30;6603;-93
2021/07/30 01:29:12;;;;;;;;;27.60;27.60;37.70;31.50;;;;;;657227;30;6618;-90
2021/07/30 01:29:36;;;;;;;;;29.00;27.20;37.70;31.50;;;;;;654307;30;6535;-90
2021/07/30 01:29:57;;;;;;;;;34.50;30.50;37.70;31.50;;;;;;654300;30;6431;-90
2021/07/30 01:31:07;;;;;;;;;35.60;31.40;37.70;31.50;;;;;;654708;30;6530;-90
2021/07/30 01:35:08;;;;;;;;;37.25;33.75;37.70;31.10;;;;;;652017;27;6819;-89
2021/07/30 01:35:49;;;;;;;;;34.60;31.60;37.70;31.30;;;;;;655762;30;6687;-90
2021/07/30 01:38:16;;;;;;;;;;;;;;;;;;;;;
2021/07/30 01:38:46;;;;;;;;;38.25;33.00;37.80;32.20;;;;;;636518;30;6519;-87
2021/07/30 01:39:07;;;;;;;;;32.75;30.75;37.70;31.00;;;;;;636216;30;7137;-88
2021/07/30 01:39:40;;;;;;;;;34.00;32.00;37.70;31.10;;;;;;636319;30;6776;-88
2021/07/30 01:40:21;;;;;;;;;37.00;32.00;37.70;31.10;;;;;;636003;30;7171;-88
2021/07/30 01:41:57;;;;;;;;;38.80;34.20;37.70;31.20;;;;;;634414;31;6858;-88
2021/07/30 01:43:01;;;;;;;;;37.00;32.50;37.70;31.10;;;;;;634513;31;6828;-88
2021/07/30 01:44:16;;;;;;;;;37.20;33.00;37.70;31.30;;;;;;636043;30;6856;-89
2021/07/30 01:45:38;;;;;;;;;39.20;34.60;37.60;31.10;;;;;;626878;31;7383;-87
2021/07/30 01:46:54;;;;;;;;;39.60;33.20;37.60;31.10;;;;;;620836;31;7169;-89
2021/07/30 01:47:26;;;;;;;;;44.00;37.25;37.60;31.30;;;;;;618087;31;7491;-90
2021/07/30 01:48:27;;;;;;;;;40.80;34.80;37.60;31.30;;;;;;620879;31;7310;-89
2021/07/30 01:49:01;;;;;;;;;43.60;37.40;37.60;31.10;;;;;;620453;31;7042;-90
2021/07/30 01:49:24;;;;;;;;;47.00;37.00;37.60;31.10;;;;;;617823;31;7018;-89
2021/07/30 01:50:48;;;;;;;;;44.20;38.00;37.60;31.50;;;;;;617735;31;6925;-88
2021/07/30 02:02:39;;;;;;;;;38.33;33.33;37.60;31.30;;;;;;618249;27;2502019;-89
2021/07/30 02:03:18;;;;;;;;;39.00;34.00;37.70;31.20;;;;;;702366;28;6356;-88
2021/07/30 02:03:59;;;;;;;;;44.25;37.00;37.70;31.30;;;;;;699608;28;6161;-89
2021/07/30 02:04:55;;;;;;;;;40.60;34.80;37.70;31.30;;;;;;696781;28;6535;-88
2021/07/30 02:05:24;;;;;;;;;40.40;35.60;37.70;31.10;;;;;;692923;28;6597;-88
2021/07/30 02:06:48;;;;;;;;;43.00;36.00;37.70;31.20;;;;;;697044;28;6743;-89
2021/07/30 02:07:18;;;;;;;;;44.20;36.80;37.80;31.10;;;;;;690604;28;7269;-88
2021/07/30 02:07:39;;;;;;;;;45.50;38.25;37.70;31.20;;;;;;692447;28;8111;-89
2021/07/30 02:11:35;;;;;;;;;43.00;36.50;37.70;31.20;;;;;;688880;28;6354;-90
2021/07/30 02:14:16;;;;;;;;;44.50;37.50;37.70;31.20;;;;;;668607;29;6372;-89
2021/07/30 02:14:24;;;;;;;;;;;;;;;;;;;;;
2021/07/30 02:26:10;;;;;;;;;43.00;36.00;37.40;31.50;;;;;;713924;23;6406;-89
2021/07/30 02:26:56;;;;;;;;;45.80;38.40;37.40;31.50;;;;;;685533;28;6732;-88
2021/07/30 02:28:41;;;;;;;;;42.00;36.00;37.40;31.40;;;;;;684001;28;6055;-87
2021/07/30 02:29:40;;;;;;;;;44.40;37.00;37.50;31.40;;;;;;679911;29;6152;-90
2021/07/30 02:30:51;;;;;;;;;46.50;39.50;37.40;31.40;;;;;;679961;29;6401;-89
2021/07/30 02:32:23;;;;;;;;;;;;;;;;;;;;;
2021/07/30 02:33:25;;;;;;;;;45.80;38.00;37.40;31.20;;;;;;677367;29;6085;-89
2021/07/30 02:33:51;;;;;;;;;44.00;38.40;37.50;31.10;;;;;;674197;29;6700;-88
2021/07/30 02:34:26;;;;;;;;;45.60;39.00;37.50;31.20;;;;;;673470;29;6688;-90
2021/07/30 02:34:59;;;;;;;;;41.00;36.00;37.40;31.10;;;;;;674551;29;8367;-88
2021/07/30 02:35:32;;;;;;;;;46.40;39.00;37.40;31.20;;;;;;676934;29;6420;-87
2021/07/30 02:35:56;;;;;;;;;41.00;36.00;37.50;31.20;;;;;;677082;29;6240;-88
2021/07/30 02:36:35;;;;;;;;;48.00;39.20;37.50;31.10;;;;;;676343;29;6646;-87
2021/07/30 02:36:56;;;;;;;;;47.00;40.00;37.50;31.20;;;;;;673278;29;8434;-87
2021/07/30 02:37:17;;;;;;;;;46.25;38.00;37.50;31.20;;;;;;671162;29;6021;-88
2021/07/30 02:37:46;;;;;;;;;44.40;37.00;37.50;31.30;;;;;;667469;29;6092;-87
2021/07/30 02:38:18;;;;;;;;;44.80;38.80;37.50;31.10;;;;;;666492;29;6788;-88
2021/07/30 02:38:48;;;;;;;;;44.40;37.40;37.50;31.10;;;;;;667487;29;6786;-87
2021/07/30 02:39:25;;;;;;;;;;;;;;;;;;;;;
2021/07/30 02:40:06;;;;;;;;;43.20;36.80;37.60;31.00;;;;;;667444;29;6299;-89
2021/07/30 02:40:37;;;;;;;;;;;;;;;;;;;;;
2021/07/30 02:41:41;;;;;;;;;43.00;35.80;37.60;31.10;;;;;;671375;29;6210;-89
2021/07/30 02:42:04;;;;;;;;;44.75;36.25;37.50;30.90;;;;;;671376;29;8491;-90
2021/07/30 02:42:28;;;;;;;;;45.50;38.25;37.60;30.90;;;;;;669944;29;8552;-94
2021/07/30 02:42:49;;;;;;;;;46.60;38.60;37.60;31.00;;;;;;669653;29;6864;-89
2021/07/30 02:43:10;;;;;;;;;44.50;38.00;37.50;30.80;;;;;;669846;29;6041;-90
2021/07/30 02:43:43;;;;;;;;;46.00;39.00;37.50;30.90;;;;;;669904;29;6720;-90
2021/07/30 02:44:13;;;;;;;;;44.00;38.00;37.60;31.00;;;;;;669907;29;8313;-93
2021/07/30 02:44:37;;;;;;;;;43.40;35.80;37.60;31.20;;;;;;673046;29;6268;-89
2021/07/30 02:45:01;;;;;;;;;48.20;39.80;37.60;31.00;;;;;;674968;29;6455;-90
2021/07/30 02:45:22;;;;;;;;;37.75;33.25;37.60;31.20;;;;;;672055;29;6225;-90
2021/07/30 02:45:48;;;;;;;;;41.25;35.75;37.60;32.60;;;;;;672589;29;6135;-93
2021/07/30 02:46:23;;;;;;;;;44.40;37.00;37.60;31.00;;;;;;674921;29;6424;-93
2021/07/30 02:46:57;;;;;;;;;45.00;37.75;37.60;31.20;;;;;;671723;29;6456;-90
2021/07/30 02:47:22;;;;;;;;;41.60;36.20;37.60;31.00;;;;;;676392;29;8352;-87
2021/07/30 02:47:49;;;;;;;;;45.50;38.00;37.60;30.90;;;;;;672916;29;6242;-90
2021/07/30 02:48:23;;;;;;;;;;;;;;;;;;;;;
2021/07/30 02:48:49;;;;;;;;;39.40;35.00;37.60;30.90;;;;;;672111;29;6198;-91
2021/07/30 02:49:11;;;;;;;;;44.25;36.50;37.60;31.00;;;;;;668457;29;6286;-90
2021/07/30 02:49:38;;;;;;;;;42.00;35.75;37.60;31.00;;;;;;664391;29;6309;-91
2021/07/30 02:50:03;;;;;;;;;43.40;37.00;37.60;30.90;;;;;;664656;29;6514;-91
2021/07/30 02:50:24;;;;;;;;;43.75;37.50;37.60;30.90;;;;;;665163;29;6262;-91
2021/07/30 02:50:58;;;;;;;;;43.20;36.20;37.50;30.80;;;;;;664688;29;6520;-89
2021/07/30 02:51:39;;;;;;;;;37.60;32.00;37.60;30.90;;;;;;665393;29;6230;-89
2021/07/30 02:52:03;;;;;;;;;39.60;34.60;37.60;30.80;;;;;;664989;29;8280;-91
2021/07/30 02:52:30;;;;;;;;;39.75;35.25;37.50;30.80;;;;;;669833;29;6220;-90
2021/07/30 02:52:51;;;;;;;;;43.60;36.00;37.50;30.70;;;;;;669694;29;6243;-91
2021/07/30 02:53:12;;;;;;;;;39.75;35.00;37.50;30.80;;;;;;670351;29;5979;-89
2021/07/30 02:53:39;;;;;;;;;37.80;33.40;37.60;31.00;;;;;;670239;29;6054;-90
2021/07/30 02:54:00;;;;;;;;;44.00;36.80;37.60;30.90;;;;;;672478;29;6229;-91
2021/07/30 02:54:21;;;;;;;;;41.50;36.00;37.50;30.80;;;;;;668614;29;6419;-91
2021/07/30 02:54:42;;;;;;;;;39.50;34.50;37.60;30.90;;;;;;669233;29;6296;-92
2021/07/30 02:55:04;;;;;;;;;43.80;36.20;37.60;30.90;;;;;;670317;29;6325;-90
2021/07/30 02:55:25;;;;;;;;;37.60;33.00;37.60;30.80;;;;;;668826;29;8327;-89
2021/07/30 02:55:46;;;;;;;;;37.20;33.20;37.50;30.80;;;;;;665079;29;6443;-90
2021/07/30 02:56:11;;;;;;;;;36.40;33.20;37.60;30.90;;;;;;667889;29;6562;-91
2021/07/30 02:56:32;;;;;;;;;37.00;33.40;37.50;30.70;;;;;;666670;29;6389;-91
2021/07/30 02:56:53;;;;;;;;;39.33;35.00;37.50;30.80;;;;;;664434;29;6511;-91
2021/07/30 02:57:14;;;;;;;;;41.75;35.75;37.50;30.80;;;;;;664926;29;6268;-92
2021/07/30 02:57:36;;;;;;;;;38.00;33.80;37.50;30.70;;;;;;669084;29;6364;-92
2021/07/30 02:57:57;;;;;;;;;41.00;35.00;37.50;30.80;;;;;;667758;29;6354;-90
2021/07/30 02:58:18;;;;;;;;;41.20;35.00;37.50;31.00;;;;;;664456;29;6720;-89
2021/07/30 02:58:40;;;;;;;;;42.75;34.00;37.50;30.90;;;;;;665049;29;6264;-90
2021/07/30 02:59:02;;;;;;;;;40.50;36.00;37.50;30.80;;;;;;663344;29;6409;-94
2021/07/30 02:59:22;;;;;;;;;39.40;35.40;37.50;30.70;;;;;;662211;29;6434;-92
2021/07/30 02:59:46;;;;;;;;;35.00;32.50;37.50;30.80;;;;;;662557;29;6489;-90
2021/07/30 03:00:07;;;;;;;;;47.75;38.00;37.50;30.80;;;;;;660132;29;6755;-89
2021/07/30 03:00:28;;;;;;;;;46.00;38.50;37.50;30.80;;;;;;659997;29;8456;-91
2021/07/30 03:00:50;;;;;;;;;45.75;38.00;37.50;30.70;;;;;;661036;29;6702;-91
2021/07/30 03:01:14;;;;;;;;;37.75;34.50;37.50;30.70;;;;;;663393;29;6513;-90
2021/07/30 03:01:36;;;;;;;;;38.00;33.00;37.50;30.80;;;;;;663296;29;6506;-91
2021/07/30 03:01:57;;;;;;;;;37.40;33.00;37.50;30.80;;;;;;665208;29;6989;-89
2021/07/30 03:02:18;;;;;;;;;43.00;35.00;37.50;30.90;;;;;;666328;29;6033;-90
2021/07/30 03:02:39;;;;;;;;;38.75;34.75;37.50;30.80;;;;;;667095;29;6231;-89
2021/07/30 03:03:00;;;;;;;;;44.00;37.00;37.50;30.80;;;;;;667767;29;6081;-89
2021/07/30 03:03:21;;;;;;;;;42.60;36.00;37.50;30.60;;;;;;668029;29;6257;-90
2021/07/30 03:03:41;;;;;;;;;39.00;35.00;37.50;30.70;;;;;;667980;29;6151;-91
2021/07/30 03:04:02;;;;;;;;;43.60;33.60;37.50;30.80;;;;;;666074;29;6172;-91
2021/07/30 03:04:23;;;;;;;;;45.00;38.00;37.50;30.60;;;;;;665676;29;6013;-89
2021/07/30 03:04:44;;;;;;;;;37.60;32.60;37.50;30.70;;;;;;658125;29;6225;-91
2021/07/30 03:05:08;;;;;;;;;43.75;35.00;37.50;30.60;;;;;;658543;29;6198;-88
2021/07/30 03:05:30;;;;;;;;;36.40;33.40;37.50;30.80;;;;;;657823;29;6359;-88
2021/07/30 03:05:52;;;;;;;;;39.20;34.00;37.50;30.70;;;;;;661669;29;6175;-91
2021/07/30 03:06:13;;;;;;;;;42.00;36.40;37.50;30.60;;;;;;662300;29;6265;-91
2021/07/30 03:06:33;;;;;;;;;39.00;33.50;37.40;30.60;;;;;;664705;29;5986;-89
2021/07/30 03:06:54;;;;;;;;;44.33;36.33;37.50;30.70;;;;;;664530;29;6051;-89
2021/07/30 03:07:15;;;;;;;;;44.75;37.50;37.40;30.60;;;;;;660977;29;6226;-88
2021/07/30 03:07:36;;;;;;;;;44.20;37.20;37.40;30.70;;;;;;660184;29;6299;-87
2021/07/30 03:07:57;;;;;;;;;41.60;34.80;37.40;30.60;;;;;;660966;29;6268;-88
2021/07/30 03:08:18;;;;;;;;;41.00;35.00;37.40;30.60;;;;;;658795;29;6104;-87
2021/07/30 03:08:39;;;;;;;;;39.25;34.00;37.40;30.80;;;;;;657309;29;6256;-87
2021/07/30 03:08:59;;;;;;;;;38.50;33.25;37.40;30.80;;;;;;661299;29;6308;-88
2021/07/30 03:09:20;;;;;;;;;39.50;34.00;37.40;30.80;;;;;;663259;29;6254;-89
2021/07/30 03:09:41;;;;;;;;;40.40;34.40;37.40;30.70;;;;;;660434;29;6393;-89
2021/07/30 03:10:03;;;;;;;;;42.75;35.75;37.40;30.60;;;;;;659836;29;7085;-91
2021/07/30 03:10:24;;;;;;;;;42.25;36.25;37.50;30.60;;;;;;666336;29;7714;-89
2021/07/30 03:10:46;;;;;;;;;41.60;35.80;37.40;30.60;;;;;;668387;29;6216;-89
2021/07/30 03:11:07;;;;;;;;;43.40;37.00;37.40;30.60;;;;;;667808;29;6321;-90
2021/07/30 03:11:29;;;;;;;;;40.00;34.25;37.40;30.60;;;;;;669215;29;6253;-89
2021/07/30 03:11:50;;;;;;;;;45.00;38.50;37.40;30.50;;;;;;678215;29;6864;-88
2021/07/30 03:12:11;;;;;;;;;37.75;33.75;37.40;30.60;;;;;;678735;29;6165;-88
2021/07/30 03:12:32;;;;;;;;;46.20;37.60;37.40;30.60;;;;;;678680;29;6428;-89
2021/07/30 03:12:53;;;;;;;;;42.40;35.00;37.40;30.50;;;;;;678670;29;6109;-87
2021/07/30 03:13:14;;;;;;;;;44.25;36.75;37.50;30.90;;;;;;677048;29;6051;-90
2021/07/30 03:13:35;;;;;;;;;38.40;35.00;37.40;30.70;;;;;;676411;29;6162;-90
2021/07/30 03:13:56;;;;;;;;;39.25;34.50;37.40;30.70;;;;;;676008;29;6191;-90
2021/07/30 03:14:17;;;;;;;;;45.00;38.00;37.40;30.80;;;;;;675986;29;6050;-89
2021/07/30 03:14:38;;;;;;;;;38.80;34.80;37.40;30.70;;;;;;676353;29;6402;-91
2021/07/30 03:14:59;;;;;;;;;37.80;33.20;37.50;30.80;;;;;;676729;29;6264;-91
2021/07/30 03:15:20;;;;;;;;;42.40;36.00;37.40;30.70;;;;;;676116;29;6155;-89
2021/07/30 03:15:41;;;;;;;;;38.40;33.40;37.40;30.70;;;;;;676016;29;6068;-90
2021/07/30 03:16:03;;;;;;;;;43.25;35.25;37.40;30.70;;;;;;673928;29;6060;-91
2021/07/30 03:16:27;;;;;;;;;37.20;34.00;37.40;30.70;;;;;;673684;29;8299;-89
2021/07/30 03:16:48;;;;;;;;;39.20;34.80;37.40;30.80;;;;;;673557;29;6513;-91
2021/07/30 03:17:09;;;;;;;;;41.00;35.60;37.40;30.80;;;;;;674216;29;6134;-92
2021/07/30 03:17:29;;;;;;;;;39.50;35.00;37.40;30.70;;;;;;674455;29;6359;-89
2021/07/30 03:17:53;;;;;;;;;40.00;34.25;37.40;30.70;;;;;;676694;29;6040;-88
2021/07/30 03:18:16;;;;;;;;;42.00;35.00;37.40;30.60;;;;;;674866;29;8643;-89
2021/07/30 03:18:37;;;;;;;;;41.00;35.60;37.40;30.60;;;;;;674467;29;6381;-90
2021/07/30 03:18:58;;;;;;;;;37.60;33.60;37.40;30.70;;;;;;676270;29;6160;-89
2021/07/30 03:19:19;;;;;;;;;43.00;35.00;37.40;30.70;;;;;;676053;29;6061;-88
2021/07/30 03:19:40;;;;;;;;;40.50;34.00;37.40;30.80;;;;;;675938;29;6429;-88
2021/07/30 03:20:05;;;;;;;;;44.00;36.75;37.40;30.80;;;;;;673526;29;6532;-88
2021/07/30 03:20:26;;;;;;;;;42.00;35.00;37.40;30.70;;;;;;673162;29;7094;-88
2021/07/30 03:20:49;;;;;;;;;37.60;33.00;37.40;30.80;;;;;;673734;29;6322;-89
2021/07/30 03:21:16;;;;;;;;;41.75;34.50;37.40;30.70;;;;;;677762;28;6405;-89
2021/07/30 03:21:39;;;;;;;;;39.00;35.00;37.40;30.80;;;;;;675224;29;6550;-90
2021/07/30 03:22:00;;;;;;;;;43.75;36.50;37.40;30.80;;;;;;675922;29;8138;-90
2021/07/30 03:22:21;;;;;;;;;44.00;37.40;37.40;30.80;;;;;;676419;29;6294;-89
2021/07/30 03:22:43;;;;;;;;;43.25;36.00;37.40;30.80;;;;;;675549;29;6532;-90
2021/07/30 03:23:03;;;;;;;;;44.40;37.40;37.40;30.80;;;;;;671989;29;6304;-89
2021/07/30 03:23:25;;;;;;;;;38.00;33.00;37.40;30.80;;;;;;671667;29;6077;-89
2021/07/30 03:23:46;;;;;;;;;42.00;35.20;37.40;30.70;;;;;;670651;29;6307;-91
2021/07/30 03:24:07;;;;;;;;;42.80;36.80;37.40;30.80;;;;;;670590;29;6159;-89
2021/07/30 03:24:27;;;;;;;;;41.60;36.00;37.40;30.70;;;;;;671449;29;6134;-91
2021/07/30 03:24:48;;;;;;;;;40.40;34.60;37.40;30.80;;;;;;670971;29;6117;-90
2021/07/30 03:25:10;;;;;;;;;40.25;35.50;37.40;30.80;;;;;;673233;29;6072;-89
2021/07/30 03:25:34;;;;;;;;;41.50;35.50;37.40;30.80;;;;;;673539;29;6231;-89
2021/07/30 03:25:58;;;;;;;;;44.60;37.80;37.40;30.90;;;;;;673289;29;6245;-90
2021/07/30 03:26:19;;;;;;;;;49.00;36.75;37.40;30.70;;;;;;670614;29;6352;-89
2021/07/30 03:26:44;;;;;;;;;42.50;36.25;37.40;30.70;;;;;;673202;29;6780;-88
2021/07/30 03:27:06;;;;;;;;;41.00;33.80;37.40;30.80;;;;;;675140;29;6319;-89
2021/07/30 03:27:27;;;;;;;;;40.00;34.60;37.40;30.80;;;;;;677630;29;6276;-88
2021/07/30 03:27:48;;;;;;;;;45.00;38.50;37.40;30.90;;;;;;678416;29;6094;-92
2021/07/30 03:28:08;;;;;;;;;42.50;36.00;37.40;30.80;;;;;;675667;29;6320;-89
2021/07/30 03:28:30;;;;;;;;;44.60;38.00;37.40;30.80;;;;;;674749;29;6190;-89
2021/07/30 03:28:51;;;;;;;;;42.00;36.00;37.40;30.70;;;;;;671461;29;8674;-88
2021/07/30 03:29:13;;;;;;;;;39.60;35.00;37.40;30.70;;;;;;670680;29;6161;-89
2021/07/30 03:29:33;;;;;;;;;38.40;35.20;37.30;30.70;;;;;;670673;29;6251;-91
2021/07/30 03:29:55;;;;;;;;;44.60;37.60;37.40;30.80;;;;;;668922;29;6839;-89
2021/07/30 03:30:19;;;;;;;;;44.50;37.75;37.40;30.80;;;;;;673195;29;6304;-89
2021/07/30 03:30:40;;;;;;;;;46.25;37.75;37.40;30.90;;;;;;671453;29;7423;-89
2021/07/30 03:31:01;;;;;;;;;44.50;37.25;37.40;30.80;;;;;;672025;29;6048;-88
2021/07/30 03:31:26;;;;;;;;;43.00;36.25;37.40;30.90;;;;;;671874;29;6132;-90
2021/07/30 03:31:49;;;;;;;;;45.00;36.00;37.40;30.90;;;;;;674839;29;6531;-89
2021/07/30 03:32:12;;;;;;;;;44.50;38.00;37.40;30.90;;;;;;673919;29;7059;-90
2021/07/30 03:32:34;;;;;;;;;41.00;35.00;37.40;30.90;;;;;;670412;29;8297;-89
2021/07/30 03:32:57;;;;;;;;;45.40;38.00;37.40;30.90;;;;;;667850;29;6978;-91
2021/07/30 03:33:20;;;;;;;;;40.50;35.00;37.40;30.90;;;;;;672673;29;6430;-89
2021/07/30 03:33:44;;;;;;;;;44.80;38.00;37.30;30.70;;;;;;672381;29;6473;-90
2021/07/30 03:34:10;;;;;;;;;44.80;37.80;37.40;30.90;;;;;;672987;29;6434;-89
2021/07/30 03:34:45;;;;;;;;;;;;;;;;;;;;;
2021/07/30 03:35:26;;;;;;;;;38.00;33.60;37.30;30.80;;;;;;674065;29;6948;-90
2021/07/30 03:35:56;;;;;;;;;45.60;37.60;37.40;30.90;;;;;;675621;29;6270;-89
2021/07/30 03:36:17;;;;;;;;;46.50;38.50;37.40;30.90;;;;;;675866;29;6727;-89
2021/07/30 03:36:38;;;;;;;;;41.80;36.00;37.30;30.80;;;;;;672917;29;6121;-89
2021/07/30 03:37:02;;;;;;;;;38.00;34.40;37.40;30.90;;;;;;670295;29;6182;-89
2021/07/30 03:37:26;;;;;;;;;44.50;38.00;37.40;30.90;;;;;;673400;29;6195;-89
2021/07/30 03:37:47;;;;;;;;;42.00;37.00;37.40;30.90;;;;;;675248;29;6315;-89
2021/07/30 03:38:17;;;;;;;;;41.00;36.00;37.40;30.90;;;;;;675853;29;5871;-89
2021/07/30 03:38:39;;;;;;;;;41.60;36.60;37.40;30.80;;;;;;678200;29;6316;-89
2021/07/30 03:39:06;;;;;;;;;44.00;37.00;37.40;30.90;;;;;;678519;29;6306;-89
2021/07/30 03:39:31;;;;;;;;;40.80;35.40;37.40;30.90;;;;;;673204;29;6561;-88
2021/07/30 03:39:52;;;;;;;;;47.00;39.50;37.40;30.90;;;;;;670765;29;6512;-90
2021/07/30 03:40:16;;;;;;;;;45.50;38.50;37.40;31.00;;;;;;671025;29;6085;-88
2021/07/30 03:40:43;;;;;;;;;39.40;34.00;37.40;31.00;;;;;;675642;29;6614;-89
2021/07/30 03:41:10;;;;;;;;;42.00;36.00;37.40;30.80;;;;;;678534;29;6434;-89
2021/07/30 03:41:37;;;;;;;;;43.40;37.60;37.40;30.90;;;;;;678606;29;6289;-89
2021/07/30 03:41:58;;;;;;;;;45.00;38.40;37.40;30.90;;;;;;675547;29;6253;-88
2021/07/30 03:42:22;;;;;;;;;47.50;39.00;37.40;30.80;;;;;;675768;29;6053;-89
2021/07/30 03:42:43;;;;;;;;;38.50;34.00;37.40;30.80;;;;;;670329;29;6694;-89
2021/07/30 03:43:13;;;;;;;;;45.25;38.00;37.40;30.80;;;;;;670664;29;6319;-88
2021/07/30 03:43:38;;;;;;;;;46.80;36.60;37.30;30.70;;;;;;673152;29;6419;-89
2021/07/30 03:43:59;;;;;;;;;44.50;36.00;37.40;30.90;;;;;;670242;29;6228;-90
2021/07/30 03:44:24;;;;;;;;;41.00;36.00;37.40;30.90;;;;;;670720;29;6249;-89
2021/07/30 03:44:52;;;;;;;;;39.00;35.00;37.40;30.90;;;;;;673388;29;6357;-89
2021/07/30 03:45:33;;;;;;;;;41.00;35.00;37.40;30.90;;;;;;673436;29;6594;-89
2021/07/30 03:45:54;;;;;;;;;46.20;38.20;37.40;30.90;;;;;;670816;29;6252;-90
2021/07/30 03:46:16;;;;;;;;;43.75;37.50;37.40;30.80;;;;;;672696;29;6055;-88
2021/07/30 03:46:37;;;;;;;;;42.20;36.00;37.40;30.80;;;;;;673211;29;6202;-90
2021/07/30 03:47:15;;;;;;;;;;;;;;;;;;;;;
2021/07/30 03:47:45;;;;;;;;;39.80;35.40;37.40;30.90;;;;;;670517;29;7238;-88